Friday, April 20, 2018, 10:20 AM GMT
Back to Local

CYHZ, Halifax International Airport

Location: , , Canada Lat: 44.883
Local Time: 10:20 AM GMT (10:20 GMT) Lon: -63.5
Time Zone: GMT Elev: 475 ft

Show me the last for .
Show Coded

Time T Td Feel RH Dir Speed Gust Alt SLP Vis Weather Sky Remarks
2018-04-20 10:00 34 34 28 100 360° 7 - 29.60 29.62 1 -DZ BR OVC002 None
2018-04-20 09:29 34 34 29 100 360° 6 - 29.60 29.62 1 -DZ BR OVC002 None
2018-04-20 09:00 34 34 29 100 350° 6 - 29.60 29.62 3 -SN OVC003 None
2018-04-20 08:00 34 34 29 100 350° 6 - 29.60 29.62 6 -SN OVC003 None
2018-04-20 07:00 34 34 31 100 360° 3 - 29.59 29.61 2 -SN OVC003 None
2018-04-20 06:42 34 34 29 100 10° 6 - 29.59 29.60 1 -SN OVC003 None
2018-04-20 06:00 36 36 29 100 10° 8 - 29.58 29.59 3 -RASN OVC005 None
2018-04-20 05:00 36 36 29 100 10° 8 - 29.58 29.59 3 -RASN OVC003 None
2018-04-20 04:00 36 36 29 100 30° 8 - 29.59 29.60 3 -RASN OVC003 None
2018-04-20 03:24 36 36 29 100 30° 9 - 29.59 29.61 3 -RASN OVC005 None
2018-04-20 03:00 36 36 30 100 10° 7 - 29.61 29.62 3 -SN SCT005 OVC018 None
2018-04-20 02:53 36 36 29 100 20° 9 - 29.60 29.62 3 -SN SCT005 OVC018 None
2018-04-20 02:00 36 36 31 100 20° 6 - 29.63 29.65 5 -RA SCT005 OVC017 None
2018-04-20 01:20 36 36 32 100 40° 5 - 29.65 29.67 5 -RA SCT005 BKN011 OVC030 None
2018-04-20 01:00 37 37 33 100 310° 6 - 29.68 29.70 5 -RA SCT005 OVC020 Pressure rising rapidly
2018-04-20 00:20 37 37 - 100 180° 2 - 29.67 29.69 8 -RA SCT003 BKN018 OVC034 Pressure rising rapidly
2018-04-20 00:00 37 37 35 100 150° 3 - 29.65 29.66 5 -RA BR BKN003 BKN011 OVC050 Pressure rising rapidly
2018-04-19 23:45 37 37 31 100 100° 9 - 29.62 29.64 5 -RA BR BKN003 OVC011 Pressure falling rapidly
2018-04-19 23:12 39 39 33 100 130° 9 - 29.65 29.67 5 -RA BR BKN005 OVC015 Pressure falling rapidly
2018-04-19 23:00 39 39 34 100 160° 7 - 29.68 29.70 5 -RA BR SCT005 OVC020 None
2018-04-19 22:00 39 39 35 100 160° 6 - 29.68 29.70 10 -RA SCT023 OVC055 None
2018-04-19 21:00 41 37 32 86 210° 10 17 29.70 29.72 10 -RA SCT023 OVC070 None
2018-04-19 20:48 43 37 36 81 210° 13 - 29.70 29.72 15 -RA FEW023 BKN070 Wind Shift: 23 min
Pressure rising rapidly
2018-04-19 20:22 45 37 40 75 150° 9 - 29.66 29.68 15 -RA SCT040 OVC080 Pressure falling rapidly
2018-04-19 20:00 46 36 42 65 170° 9 - 29.70 29.71 15 SCT040 OVC080 None
2018-04-19 19:00 48 37 44 66 180° 9 - 29.69 29.71 15 BKN048 OVC120 Pressure falling rapidly
2018-04-19 18:00 48 36 45 61 220° 7 - 29.71 29.72 15 SCT040 OVC130 Pressure rising rapidly
2018-04-19 17:00 48 36 43 61 250° 14 - 29.71 29.73 15 SCT035 OVC130 None
2018-04-19 16:00 46 34 41 61 240° 12 - 29.70 29.72 15 SCT030 OVC170 None
2018-04-19 15:00 45 37 37 75 230° 10 17 29.71 29.73 15 FEW020 SCT075 BKN190 None
2018-04-19 14:00 43 37 37 81 210° 12 - 29.71 29.72 15 BKN042 BKN070 None
2018-04-19 13:00 39 37 34 93 230° 7 - 29.71 29.72 15 OVC060 None
2018-04-19 12:00 37 36 30 93 210° 12 - 29.69 29.70 15 FEW020 BKN047 OVC240 None
2018-04-19 11:00 37 36 30 93 210° 10 - 29.68 29.69 15 BKN052 BKN080 BKN240 None

Support USWX by starting your Amazon purchase here.